createdAt,value
2022-11-30T00:00:14.635Z,39.78
2022-11-30T00:05:16.198Z,49.38
2022-11-30T00:10:17.770Z,43.50
2022-11-30T00:15:20.387Z,38.22
2022-11-30T00:20:21.944Z,43.67
2022-11-30T00:25:24.844Z,43.75
2022-11-30T00:30:26.375Z,40.78
2022-11-30T00:35:27.873Z,37.47
2022-11-30T00:40:29.331Z,42.53
2022-11-30T00:45:30.768Z,41.50
2022-11-30T00:50:32.344Z,37.53
2022-11-30T00:55:33.962Z,38.28
2022-11-30T01:00:35.936Z,42.17
2022-11-30T01:05:38.937Z,38.60
2022-11-30T01:10:43.018Z,42.30
2022-11-30T01:15:44.664Z,39.45
2022-11-30T01:20:46.190Z,41.95
2022-11-30T01:25:55.231Z,40.30
2022-11-30T01:30:59.165Z,41.55
2022-11-30T01:36:12.641Z,43.88
2022-11-30T01:41:17.397Z,43.60
2022-11-30T01:46:35.788Z,42.97
2022-11-30T01:51:51.568Z,43.80
2022-11-30T01:57:02.668Z,38.38
2022-11-30T02:02:04.135Z,39.13
2022-11-30T02:07:07.830Z,42.70
2022-11-30T02:12:21.903Z,40.88
2022-11-30T02:17:53.762Z,46.78
2022-11-30T02:23:10.131Z,41.58
2022-11-30T02:28:30.412Z,39.42
2022-11-30T02:33:33.044Z,39.53
2022-11-30T02:38:34.720Z,44.40
2022-11-30T02:43:36.612Z,39.20
2022-11-30T02:49:06.100Z,41.83
2022-11-30T02:54:08.377Z,39.88
2022-11-30T02:59:09.942Z,40.92
2022-11-30T03:04:11.384Z,45.35
2022-11-30T03:09:14.213Z,40.22
2022-11-30T03:14:15.737Z,41.22
2022-11-30T03:19:17.276Z,44.03
2022-11-30T03:24:18.859Z,46.42
2022-11-30T03:29:20.336Z,43.65
2022-11-30T03:34:22.629Z,41.80
2022-11-30T03:39:24.586Z,43.28
2022-11-30T03:44:26.107Z,41.45
2022-11-30T03:49:27.576Z,45.88
2022-11-30T03:54:29.135Z,47.85
2022-11-30T03:59:30.611Z,43.55
2022-11-30T04:04:32.156Z,45.22
2022-11-30T04:09:33.660Z,40.10
2022-11-30T04:14:35.245Z,44.33
2022-11-30T04:19:36.712Z,45.78
2022-11-30T04:24:38.210Z,46.70
2022-11-30T04:29:39.663Z,52.28
2022-11-30T04:34:41.175Z,43.67
2022-11-30T04:39:42.683Z,47.45
2022-11-30T04:44:44.327Z,45.00
2022-11-30T04:49:46.001Z,54.22
2022-11-30T04:54:47.627Z,49.45
2022-11-30T04:59:49.328Z,47.55
2022-11-30T05:04:51.150Z,47.67
2022-11-30T05:09:53.909Z,44.67
2022-11-30T05:14:55.365Z,44.53
2022-11-30T05:19:56.813Z,47.25
2022-11-30T05:24:58.303Z,47.25
2022-11-30T05:29:59.799Z,45.80
2022-11-30T05:35:01.332Z,47.67
2022-11-30T05:40:02.926Z,51.25
2022-11-30T05:45:04.803Z,44.97
2022-11-30T05:50:07.090Z,52.30
2022-11-30T05:55:08.725Z,46.67
2022-11-30T06:00:10.689Z,46.67
2022-11-30T06:05:13.605Z,50.92
2022-11-30T06:10:15.148Z,49.25
2022-11-30T06:15:16.695Z,45.60
2022-11-30T06:20:18.235Z,48.78
2022-11-30T06:25:19.762Z,49.90
2022-11-30T06:30:21.320Z,49.00
2022-11-30T06:35:22.839Z,44.45
2022-11-30T06:40:24.299Z,46.33
2022-11-30T06:45:25.845Z,48.85
2022-11-30T06:50:27.364Z,46.90
2022-11-30T06:55:32.648Z,57.05
2022-11-30T07:00:34.889Z,51.00
2022-11-30T07:05:45.392Z,52.03
2022-11-30T07:10:47.486Z,48.15
2022-11-30T07:15:49.006Z,49.20
2022-11-30T07:20:50.602Z,49.70
2022-11-30T07:26:09.376Z,56.17
2022-11-30T07:31:25.032Z,52.30
2022-11-30T07:36:27.652Z,50.63
2022-11-30T07:41:29.420Z,48.55
2022-11-30T07:46:31.580Z,53.25
2022-11-30T07:51:33.644Z,50.85
2022-11-30T07:56:35.175Z,44.13
2022-11-30T08:01:37.350Z,46.67
2022-11-30T08:06:38.971Z,47.40
2022-11-30T08:11:40.526Z,44.85
2022-11-30T08:16:44.135Z,49.20
2022-11-30T08:21:45.731Z,50.55
2022-11-30T08:26:50.997Z,47.38
2022-11-30T08:31:52.460Z,60.42
2022-11-30T08:36:53.940Z,53.97
2022-11-30T08:41:55.424Z,53.45
2022-11-30T08:46:57.036Z,62.97
2022-11-30T08:57:21.211Z,55.20
2022-11-30T09:02:22.758Z,54.75
2022-11-30T09:07:24.334Z,54.85
2022-11-30T09:12:25.854Z,56.55
2022-11-30T09:17:27.388Z,51.47
2022-11-30T09:22:28.965Z,53.05
2022-11-30T09:27:34.057Z,56.50
2022-11-30T09:32:35.616Z,55.47
2022-11-30T09:37:38.773Z,51.15
2022-11-30T09:42:51.538Z,53.95
2022-11-30T09:48:02.401Z,55.17
2022-11-30T09:53:10.471Z,59.05
2022-11-30T09:58:37.443Z,58.78
2022-11-30T10:03:39.127Z,61.10
2022-11-30T10:08:58.848Z,55.38
2022-11-30T10:14:17.813Z,53.65
2022-11-30T10:19:46.851Z,57.55
2022-11-30T10:25:14.777Z,51.35
2022-11-30T10:30:22.168Z,48.13
2022-11-30T10:35:33.418Z,50.47
2022-11-30T10:40:45.293Z,49.30
2022-11-30T10:45:50.702Z,38.45
2022-11-30T10:50:53.242Z,37.80
2022-11-30T10:56:12.651Z,44.67
2022-11-30T11:01:31.131Z,44.83
2022-11-30T11:06:33.554Z,47.85
2022-11-30T11:11:39.446Z,43.75
2022-11-30T11:17:00.835Z,40.17
2022-11-30T11:22:05.667Z,40.72
2022-11-30T11:27:07.366Z,39.38
2022-11-30T11:32:19.098Z,39.60
2022-11-30T11:37:26.225Z,42.17
2022-11-30T11:42:31.367Z,40.72
2022-11-30T11:47:40.521Z,38.05
2022-11-30T11:52:41.996Z,38.03
2022-11-30T11:57:54.561Z,36.95
2022-11-30T12:03:24.814Z,36.80
2022-11-30T12:08:56.716Z,37.03
2022-11-30T12:13:58.368Z,35.05
2022-11-30T12:19:24.674Z,38.35
2022-11-30T12:24:31.947Z,32.88
2022-11-30T12:29:42.441Z,40.53
2022-11-30T12:35:08.563Z,36.65
2022-11-30T12:40:28.311Z,38.78
2022-11-30T12:45:43.679Z,39.63
2022-11-30T12:50:56.818Z,38.08
2022-11-30T12:56:01.294Z,40.58
2022-11-30T13:01:10.003Z,40.13
2022-11-30T13:06:47.610Z,37.20
2022-11-30T13:11:56.347Z,36.17
2022-11-30T13:17:06.018Z,37.05
2022-11-30T13:22:19.303Z,39.50
2022-11-30T13:27:37.362Z,37.60
2022-11-30T13:38:36.330Z,36.22
2022-11-30T13:43:31.468Z,36.25
2022-11-30T13:48:38.557Z,43.05
2022-11-30T13:53:40.828Z,42.67
2022-11-30T13:59:22.605Z,42.97
2022-11-30T14:04:32.298Z,45.42
2022-11-30T14:09:43.084Z,42.70
2022-11-30T14:14:46.977Z,41.03
2022-11-30T14:19:52.585Z,42.22
2022-11-30T14:24:55.488Z,44.65
2022-11-30T14:30:03.005Z,44.03
2022-11-30T14:35:17.039Z,43.15
2022-11-30T14:40:20.604Z,47.30
2022-11-30T14:45:31.029Z,47.00
2022-11-30T14:50:32.970Z,47.97
2022-11-30T14:56:04.525Z,45.22
2022-11-30T15:01:21.945Z,44.25
2022-11-30T15:06:30.688Z,43.45
2022-11-30T15:11:32.219Z,43.30
2022-11-30T15:16:33.798Z,43.83
2022-11-30T15:21:35.321Z,49.13
2022-11-30T15:26:46.291Z,48.45
2022-11-30T15:31:51.668Z,59.15
2022-11-30T15:36:55.909Z,53.30
2022-11-30T15:41:59.792Z,50.95
2022-11-30T15:47:02.617Z,53.53
2022-11-30T15:52:09.979Z,54.45
2022-11-30T15:57:12.079Z,52.08
2022-11-30T16:02:26.631Z,48.58
2022-11-30T16:07:31.954Z,47.38
2022-11-30T16:12:33.593Z,49.03
2022-11-30T16:17:35.122Z,47.28
2022-11-30T16:22:38.065Z,61.90
2022-11-30T16:27:39.532Z,59.58
2022-11-30T16:32:40.988Z,49.70
2022-11-30T16:37:42.560Z,60.22
2022-11-30T16:42:44.234Z,59.75
2022-11-30T16:47:45.841Z,63.13
2022-11-30T16:52:47.436Z,60.58
2022-11-30T16:57:49.634Z,54.15
2022-11-30T17:03:04.664Z,51.70
2022-11-30T17:08:06.332Z,62.85
2022-11-30T17:13:13.601Z,61.78
2022-11-30T17:18:15.127Z,62.85
2022-11-30T17:23:16.677Z,71.90
2022-11-30T17:28:18.335Z,72.65
2022-11-30T17:33:19.858Z,71.30
2022-11-30T17:38:21.317Z,65.97
2022-11-30T17:43:23.055Z,70.68
2022-11-30T17:48:24.547Z,65.90
2022-11-30T17:53:26.035Z,62.30
2022-11-30T17:58:32.544Z,67.97
2022-11-30T18:03:35.688Z,67.53
2022-11-30T18:08:38.921Z,65.75
2022-11-30T18:13:41.033Z,74.57
2022-11-30T18:18:47.654Z,76.55
2022-11-30T18:23:50.708Z,78.97
2022-11-30T18:28:57.395Z,76.40
2022-11-30T18:34:00.858Z,86.47
2022-11-30T18:39:02.741Z,85.63
2022-11-30T18:44:04.856Z,99.07
2022-11-30T18:49:06.882Z,86.63
2022-11-30T18:54:10.295Z,100.63
2022-11-30T18:59:13.960Z,92.28
2022-11-30T19:04:15.476Z,97.00
2022-11-30T19:09:18.989Z,94.05
2022-11-30T19:14:20.556Z,94.85
2022-11-30T19:19:22.141Z,106.57
2022-11-30T19:24:23.954Z,105.50
2022-11-30T19:29:25.470Z,101.35
2022-11-30T19:34:27.028Z,106.63
2022-11-30T19:39:28.525Z,99.88
2022-11-30T19:44:30.134Z,105.93
2022-11-30T19:49:31.660Z,101.53
2022-11-30T19:54:33.226Z,101.72
2022-11-30T19:59:34.696Z,102.55
2022-11-30T20:04:36.215Z,103.80
2022-11-30T20:09:38.136Z,101.85
2022-11-30T20:14:39.637Z,114.63
2022-11-30T20:19:41.117Z,127.18
2022-11-30T20:24:42.633Z,111.53
2022-11-30T20:29:44.091Z,111.65
2022-11-30T20:34:45.679Z,100.70
2022-11-30T20:39:47.268Z,107.75
2022-11-30T20:44:49.823Z,101.97
2022-11-30T20:49:51.522Z,98.57
2022-11-30T20:54:53.004Z,108.90
2022-11-30T20:59:54.500Z,101.50
2022-11-30T21:04:55.982Z,106.30
2022-11-30T21:09:58.450Z,113.20
2022-11-30T21:14:59.934Z,106.22
2022-11-30T21:20:01.785Z,104.07
2022-11-30T21:25:03.501Z,107.00
2022-11-30T21:30:06.156Z,114.78
2022-11-30T21:35:08.244Z,115.32
2022-11-30T21:40:10.832Z,105.65
2022-11-30T21:45:12.294Z,116.47
2022-11-30T21:50:13.810Z,110.70
2022-11-30T21:55:15.334Z,107.00
2022-11-30T22:00:17.162Z,110.82
2022-11-30T22:05:18.744Z,108.50
2022-11-30T22:10:20.621Z,114.60
2022-11-30T22:15:22.340Z,107.22
2022-11-30T22:20:23.876Z,113.05
2022-11-30T22:25:25.395Z,120.22
2022-11-30T22:30:26.919Z,112.70
2022-11-30T22:35:28.423Z,100.95
2022-11-30T22:40:29.897Z,111.88
2022-11-30T22:45:33.134Z,107.30
2022-11-30T22:50:35.152Z,106.38
2022-11-30T22:55:36.776Z,106.88
2022-11-30T23:00:38.372Z,109.88
2022-11-30T23:05:40.174Z,111.35
2022-11-30T23:10:41.642Z,114.03
2022-11-30T23:15:43.302Z,116.43
2022-11-30T23:20:44.870Z,117.07
2022-11-30T23:25:46.391Z,113.93
2022-11-30T23:30:47.871Z,113.45
2022-11-30T23:35:49.327Z,110.75
2022-11-30T23:40:50.803Z,112.90
2022-11-30T23:45:52.249Z,105.93
2022-11-30T23:50:54.414Z,118.45
2022-11-30T23:55:56.735Z,103.32
